Time;durP1;ratioP1;P1;durP2;ratioP2;P2;SDS_P1;SDS_P2;PMS_P1;PMS_P2;Temp;Humidity;BMP_temperature;BMP_pressure;BME280_temperature;BME280_humidity;BME280_pressure;Samples;Min_cycle;Max_cycle;Signal;HPM_P1;HPM_P2
2022/02/23 00:01:51;;;;;;;7.05;2.72;;;;;;;12.07;51.96;101767.16;5045451;28;20098;-78
2022/02/23 00:04:18;;;;;;;8.88;2.88;;;;;;;12.05;51.56;101760.91;5037994;28;20049;-78
2022/02/23 00:06:44;;;;;;;9.73;2.75;;;;;;;12.04;51.75;101775.47;5044898;28;20088;-78
2022/02/23 00:09:11;;;;;;;9.93;3.28;;;;;;;12.03;51.77;101773.72;5034045;28;20069;-78
2022/02/23 00:11:39;;;;;;;8.70;3.58;;;;;;;12.02;51.49;101780.16;5036174;28;20048;-78
2022/02/23 00:14:06;;;;;;;8.20;2.85;;;;;;;12.00;51.51;101784.81;5049189;28;20285;-78
2022/02/23 00:16:33;;;;;;;7.75;2.83;;;;;;;11.99;51.76;101783.06;5044491;28;20080;-78
2022/02/23 00:18:59;;;;;;;9.52;2.70;;;;;;;11.98;51.87;101793.06;5039432;28;20060;-78
2022/02/23 00:21:26;;;;;;;6.45;2.50;;;;;;;11.97;51.66;101795.88;5025859;28;20095;-78
2022/02/23 00:23:52;;;;;;;8.00;2.53;;;;;;;11.96;51.34;101794.09;5036264;28;20088;-78
2022/02/23 00:26:19;;;;;;;8.25;2.50;;;;;;;11.96;51.59;101799.53;5041904;28;20500;-78
2022/02/23 00:28:45;;;;;;;6.90;2.53;;;;;;;11.95;51.98;101803.22;5041777;28;20085;-78
2022/02/23 00:31:12;;;;;;;6.60;2.22;;;;;;;11.94;51.94;101804.22;5045557;28;20045;-78
2022/02/23 00:33:38;;;;;;;7.32;2.53;;;;;;;11.94;51.56;101802.34;5036395;28;20053;-78
2022/02/23 00:36:05;;;;;;;7.97;3.85;;;;;;;11.93;51.62;101806.06;5051594;28;20316;-78
2022/02/23 00:38:32;;;;;;;8.57;3.97;;;;;;;11.92;51.65;101809.75;5055504;28;20075;-77
2022/02/23 00:40:58;;;;;;;9.73;4.25;;;;;;;11.92;51.75;101812.47;5041411;28;20123;-78
2022/02/23 00:43:26;;;;;;;7.32;4.07;;;;;;;11.91;51.78;101815.28;5048681;28;20088;-78
2022/02/23 00:45:53;;;;;;;7.50;3.75;;;;;;;11.90;51.58;101817.13;5043788;28;20404;-78
2022/02/23 00:48:19;;;;;;;9.50;4.03;;;;;;;11.90;51.36;101821.69;5050023;28;20523;-78
2022/02/23 00:50:46;;;;;;;10.15;3.63;;;;;;;11.89;51.46;101830.81;5038946;28;20107;-78
2022/02/23 00:53:13;;;;;;;8.35;3.22;;;;;;;11.88;51.77;101835.38;5046757;28;20085;-78
2022/02/23 00:55:39;;;;;;;8.27;3.08;;;;;;;11.87;51.48;101830.00;5047561;28;20084;-78
2022/02/23 00:58:06;;;;;;;7.68;2.40;;;;;;;11.87;51.43;101827.28;5046988;28;20099;-78
2022/02/23 01:00:32;;;;;;;9.00;2.50;;;;;;;11.87;51.60;101840.88;5044896;28;20468;-78
2022/02/23 01:02:59;;;;;;;6.70;2.22;;;;;;;11.85;51.82;101842.84;5048926;28;20045;-78
2022/02/23 01:05:25;;;;;;;6.45;2.08;;;;;;;11.84;51.68;101847.41;5059622;28;20893;-78
2022/02/23 01:07:54;;;;;;;6.28;2.17;;;;;;;11.82;51.52;101842.03;5049076;28;20049;-79
2022/02/23 01:10:20;;;;;;;5.90;2.08;;;;;;;11.82;51.57;101849.31;5046759;28;20092;-77
2022/02/23 01:12:47;;;;;;;6.53;2.00;;;;;;;11.81;51.58;101853.88;5051129;28;20566;-78
2022/02/23 01:15:14;;;;;;;4.90;1.88;;;;;;;11.79;51.43;101850.34;5042448;28;20057;-78
2022/02/23 01:17:41;;;;;;;8.45;2.13;;;;;;;11.78;51.43;101853.16;5046294;28;20080;-78
2022/02/23 01:20:08;;;;;;;9.30;1.80;;;;;;;11.77;51.72;101860.47;5055008;28;20060;-78
2022/02/23 01:22:35;;;;;;;7.72;1.90;;;;;;;11.75;51.41;101869.69;5029273;28;20051;-78
2022/02/23 01:25:03;;;;;;;7.57;2.20;;;;;;;11.76;51.54;101866.00;5042799;28;20097;-78
2022/02/23 01:27:30;;;;;;;8.25;1.88;;;;;;;11.74;51.49;101870.59;5047208;28;20786;-78
2022/02/23 01:29:58;;;;;;;7.85;2.28;;;;;;;11.71;51.51;101874.38;5041869;28;20056;-78
2022/02/23 01:32:25;;;;;;;7.47;2.20;;;;;;;11.72;51.41;101875.25;5042118;28;20080;-78
2022/02/23 01:34:52;;;;;;;5.63;2.90;;;;;;;11.70;51.38;101883.47;5039590;28;20053;-78
2022/02/23 01:37:19;;;;;;;5.88;3.40;;;;;;;11.70;51.48;101879.88;5060892;28;20527;-78
2022/02/23 01:39:45;;;;;;;8.07;3.50;;;;;;;11.68;51.34;101888.16;5039804;28;20060;-78
2022/02/23 01:42:12;;;;;;;6.30;3.30;;;;;;;11.66;51.48;101887.34;5049031;28;20103;-78
2022/02/23 01:44:39;;;;;;;7.05;3.65;;;;;;;11.66;51.17;101890.06;5048094;28;20483;-78
2022/02/23 01:47:06;;;;;;;7.75;3.47;;;;;;;11.66;51.34;101894.63;5027406;28;20081;-78
2022/02/23 01:49:33;;;;;;;8.75;2.95;;;;;;;11.64;51.27;101896.53;5042347;28;20059;-78
2022/02/23 01:52:01;;;;;;;9.43;3.33;;;;;;;11.64;51.11;101902.00;5059128;28;20080;-78
2022/02/23 01:54:28;;;;;;;6.72;3.10;;;;;;;11.61;51.13;101903.03;5046767;28;20053;-78
2022/02/23 01:56:54;;;;;;;9.80;2.70;;;;;;;11.61;51.33;101907.63;5045696;28;20104;-78
2022/02/23 01:59:21;;;;;;;5.70;2.53;;;;;;;11.60;51.31;101908.56;5047853;28;20080;-77
2022/02/23 02:01:48;;;;;;;5.50;2.70;;;;;;;11.59;51.50;101912.25;5053710;28;20080;-77
2022/02/23 02:04:14;;;;;;;6.47;2.53;;;;;;;11.58;51.25;101913.22;5056317;28;20049;-78
2022/02/23 02:06:41;;;;;;;7.30;2.40;;;;;;;11.57;51.21;101917.78;5045498;28;20095;-77
2022/02/23 02:09:10;;;;;;;8.13;2.78;;;;;;;11.56;51.36;101926.88;5046591;28;20071;-78
2022/02/23 02:11:37;;;;;;;4.57;2.67;;;;;;;11.56;51.21;101926.88;5048478;28;20119;-78
2022/02/23 02:14:03;;;;;;;8.10;3.20;;;;;;;11.55;50.93;101925.13;5027313;28;20049;-77
2022/02/23 02:16:30;;;;;;;5.50;3.05;;;;;;;11.54;51.23;101922.47;5049294;28;20475;-78
2022/02/23 02:18:58;;;;;;;6.78;3.88;;;;;;;11.53;51.11;101921.59;5046892;28;20075;-77
2022/02/23 02:21:29;;;;;;;11.38;4.68;;;;;;;11.54;51.23;101926.09;5050861;28;20135;-78
2022/02/23 02:23:56;;;;;;;9.82;4.30;;;;;;;11.50;51.36;101929.94;5043718;28;20456;-77
2022/02/23 02:26:22;;;;;;;10.27;4.45;;;;;;;11.49;51.43;101930.91;5053465;28;20052;-77
2022/02/23 02:28:49;;;;;;;8.77;4.82;;;;;;;11.49;51.13;101936.34;5026909;28;20110;-77
2022/02/23 02:31:16;;;;;;;7.75;4.13;;;;;;;11.48;51.17;101936.41;5048276;28;20055;-77
2022/02/23 02:33:42;;;;;;;7.65;3.22;;;;;;;11.47;51.38;101931.94;5047488;28;20111;-78
2022/02/23 02:36:09;;;;;;;5.47;2.95;;;;;;;11.46;51.14;101925.63;5042344;28;20060;-78
2022/02/23 02:38:36;;;;;;;7.00;1.92;;;;;;;11.45;51.00;101929.28;5045680;28;20147;-77
2022/02/23 02:41:02;;;;;;;7.63;1.90;;;;;;;11.43;51.24;101931.25;5054017;28;20094;-77
2022/02/23 02:43:29;;;;;;;6.45;1.75;;;;;;;11.42;51.03;101927.63;5061937;28;20500;-77
2022/02/23 02:45:55;;;;;;;5.35;1.77;;;;;;;11.41;51.32;101928.59;5033944;28;20129;-77
2022/02/23 02:48:22;;;;;;;4.85;1.40;;;;;;;11.39;51.05;101929.63;5036322;28;20065;-78
2022/02/23 02:50:49;;;;;;;5.40;1.55;;;;;;;11.38;51.13;101936.91;5039487;28;20042;-78
2022/02/23 02:53:15;;;;;;;10.15;1.90;;;;;;;11.35;51.05;101937.09;5031414;28;20056;-77
2022/02/23 02:55:42;;;;;;;4.47;1.40;;;;;;;11.35;51.12;101944.38;5048703;28;20145;-77
2022/02/23 02:58:09;;;;;;;4.72;1.60;;;;;;;11.33;51.02;101951.72;5042584;28;20135;-77
2022/02/23 03:00:35;;;;;;;6.07;1.63;;;;;;;11.32;50.95;101945.41;5041060;28;20045;-77
2022/02/23 03:03:02;;;;;;;4.93;1.42;;;;;;;11.31;50.96;101946.34;5046820;28;20389;-77
2022/02/23 03:05:31;;;;;;;5.18;1.42;;;;;;;11.29;51.12;101950.97;5048055;28;20052;-77
2022/02/23 03:07:58;;;;;;;6.05;1.73;;;;;;;11.28;51.17;101951.09;5050730;28;20084;-77
2022/02/23 03:10:27;;;;;;;6.45;1.70;;;;;;;11.28;51.17;101953.81;5027023;28;20083;-77
2022/02/23 03:12:54;;;;;;;7.70;1.73;;;;;;;11.26;50.99;101953.88;5033124;28;20076;-78
2022/02/23 03:15:21;;;;;;;7.82;1.48;;;;;;;11.25;51.13;101962.09;5062901;28;20052;-77
2022/02/23 03:17:47;;;;;;;6.75;1.70;;;;;;;11.22;51.12;101960.41;5037024;28;20100;-77
2022/02/23 03:20:14;;;;;;;5.43;1.65;;;;;;;11.22;50.91;101965.84;5035949;28;20053;-78
2022/02/23 03:22:41;;;;;;;3.88;1.70;;;;;;;11.19;50.95;101971.47;5051312;28;20052;-77
2022/02/23 03:25:08;;;;;;;6.35;1.55;;;;;;;11.19;50.72;101978.75;5062630;28;20072;-77
2022/02/23 03:27:34;;;;;;;6.55;1.50;;;;;;;11.16;50.89;101978.88;5038374;28;20401;-77
2022/02/23 03:30:10;;;;;;;4.50;1.83;;;;;;;11.17;51.06;101981.53;5037763;28;20847;-77
2022/02/23 03:32:37;;;;;;;5.63;1.27;;;;;;;11.12;50.94;101980.03;5040747;28;20045;-77
2022/02/23 03:35:04;;;;;;;4.80;1.50;;;;;;;11.13;51.11;101987.19;5040528;28;20124;-77
2022/02/23 03:37:33;;;;;;;7.40;1.40;;;;;;;11.11;51.06;101995.44;5050498;28;20077;-77
2022/02/23 03:40:00;;;;;;;6.22;1.63;;;;;;;11.11;50.93;101991.84;5032034;28;20144;-77
2022/02/23 03:42:27;;;;;;;6.00;1.80;;;;;;;11.11;50.85;101997.28;5051208;28;20281;-77
2022/02/23 03:44:53;;;;;;;5.70;1.52;;;;;;;11.10;50.80;101998.25;5027990;28;20056;-77
2022/02/23 03:47:20;;;;;;;6.60;1.80;;;;;;;11.10;51.07;101998.25;5037439;28;20164;-77
2022/02/23 03:49:46;;;;;;;3.95;1.45;;;;;;;11.10;50.98;102006.38;5029738;28;20132;-78
2022/02/23 03:52:13;;;;;;;7.80;1.95;;;;;;;11.09;50.79;102020.94;5045841;28;20123;-77
2022/02/23 03:54:39;;;;;;;4.55;1.60;;;;;;;11.07;50.60;102015.56;5049251;28;20048;-77
2022/02/23 03:57:06;;;;;;;5.68;1.85;;;;;;;11.06;50.63;102013.81;5037395;28;20087;-77
2022/02/23 03:59:33;;;;;;;9.15;2.10;;;;;;;11.06;50.84;102027.41;5044527;28;20507;-77
2022/02/23 04:02:00;;;;;;;7.45;2.58;;;;;;;11.05;50.76;102031.06;5050453;28;20060;-77
2022/02/23 04:04:26;;;;;;;6.05;2.03;;;;;;;11.05;50.79;102033.78;5036121;28;20053;-77
2022/02/23 04:06:53;;;;;;;5.10;2.15;;;;;;;11.03;50.83;102031.16;5038872;28;20091;-77
2022/02/23 04:09:20;;;;;;;7.43;2.10;;;;;;;11.04;50.89;102046.50;5043523;28;20061;-77
2022/02/23 04:11:46;;;;;;;6.45;1.75;;;;;;;11.03;50.89;102046.59;5045576;28;20552;-78
2022/02/23 04:14:13;;;;;;;4.88;1.98;;;;;;;11.01;50.76;102049.38;5030290;28;20449;-77
2022/02/23 04:16:39;;;;;;;7.65;2.30;;;;;;;11.00;51.02;102063.03;5046499;28;20088;-77
2022/02/23 04:19:06;;;;;;;5.65;2.05;;;;;;;10.99;50.92;102064.00;5028414;28;20072;-77
2022/02/23 04:21:33;;;;;;;6.57;2.10;;;;;;;10.98;50.92;102064.94;5050076;28;20083;-78
2022/02/23 04:23:59;;;;;;;6.90;2.38;;;;;;;10.96;51.13;102075.00;5059800;28;20488;-77
2022/02/23 04:26:26;;;;;;;8.13;2.83;;;;;;;10.97;51.17;102079.47;5050871;28;20485;-77
2022/02/23 04:28:52;;;;;;;6.43;3.00;;;;;;;10.95;50.87;102076.81;5040561;28;20055;-77
2022/02/23 04:31:23;;;;;;;9.70;3.70;;;;;;;10.95;51.06;102073.25;5037981;28;20053;-77
2022/02/23 04:33:51;;;;;;;12.50;4.25;;;;;;;10.94;50.83;102085.97;5049221;28;20103;-77
2022/02/23 04:36:18;;;;;;;11.18;4.03;;;;;;;10.95;51.20;102086.84;5067465;28;20083;-77
2022/02/23 04:38:45;;;;;;;9.88;4.38;;;;;;;10.95;51.15;102086.84;5048066;28;20059;-78
2022/02/23 04:41:12;;;;;;;10.88;5.13;;;;;;;10.95;51.04;102092.28;5049771;28;20049;-77
2022/02/23 04:43:39;;;;;;;14.80;4.88;;;;;;;10.94;51.13;102091.41;5048867;28;20216;-77
2022/02/23 04:46:08;;;;;;;9.35;3.70;;;;;;;10.95;51.02;102089.56;5049887;28;20048;-77
2022/02/23 04:48:36;;;;;;;12.48;4.78;;;;;;;10.94;51.08;102105.00;5036708;28;20056;-77
2022/02/23 04:51:03;;;;;;;10.60;5.22;;;;;;;10.93;51.09;102105.94;5049295;28;20056;-77
2022/02/23 04:53:29;;;;;;;11.45;5.18;;;;;;;10.93;51.04;102107.78;5048493;28;20076;-78
2022/02/23 04:55:56;;;;;;;9.25;4.13;;;;;;;10.92;51.12;102108.72;5039505;28;20131;-77
2022/02/23 04:58:25;;;;;;;12.90;4.18;;;;;;;10.92;51.18;102106.00;5050258;28;20052;-77
2022/02/23 05:00:51;;;;;;;8.77;3.58;;;;;;;10.91;50.84;102118.72;5036519;28;20080;-77
2022/02/23 05:03:18;;;;;;;6.88;3.20;;;;;;;10.90;50.95;102110.63;5047975;28;20056;-77
2022/02/23 05:05:45;;;;;;;6.07;2.60;;;;;;;10.89;51.05;102120.59;5048290;28;20084;-78
2022/02/23 05:08:13;;;;;;;8.05;2.35;;;;;;;10.89;50.87;102123.31;5048444;28;20080;-78
2022/02/23 05:10:40;;;;;;;8.05;2.60;;;;;;;10.87;50.99;102114.38;5048586;28;20148;-78
2022/02/23 05:13:07;;;;;;;5.20;2.10;;;;;;;10.87;50.58;102121.66;5027160;28;20080;-77
2022/02/23 05:15:34;;;;;;;4.68;1.88;;;;;;;10.87;50.67;102116.22;5038249;28;20053;-78
2022/02/23 05:18:01;;;;;;;7.90;2.38;;;;;;;10.86;50.74;102126.22;5047268;28;20144;-78
2022/02/23 05:20:28;;;;;;;6.57;1.88;;;;;;;10.85;50.55;102124.44;5038269;28;20125;-77
2022/02/23 05:22:55;;;;;;;5.50;1.85;;;;;;;10.83;50.66;102118.19;5053870;28;20149;-78
2022/02/23 05:25:21;;;;;;;6.22;1.77;;;;;;;10.82;50.56;102131.84;5029956;28;20136;-77
2022/02/23 05:27:48;;;;;;;8.15;2.13;;;;;;;10.81;50.72;102132.78;5049154;28;20081;-77
2022/02/23 05:30:14;;;;;;;7.40;2.08;;;;;;;10.79;50.75;102137.44;5045628;28;20568;-77
2022/02/23 05:32:42;;;;;;;5.93;2.28;;;;;;;10.76;50.78;102138.47;5036708;28;20053;-77
2022/02/23 05:35:09;;;;;;;5.60;2.15;;;;;;;10.76;50.53;102135.75;5028417;28;20049;-77
2022/02/23 05:37:37;;;;;;;6.25;1.90;;;;;;;10.74;50.62;102139.47;5035921;28;20132;-77
2022/02/23 05:40:05;;;;;;;5.18;2.00;;;;;;;10.72;50.47;102144.09;5047530;28;20136;-77
2022/02/23 05:42:33;;;;;;;6.13;2.00;;;;;;;10.67;50.27;102147.03;5045779;28;20491;-77
2022/02/23 05:44:59;;;;;;;5.05;2.03;;;;;;;10.62;50.18;102149.94;5046890;28;20476;-77
2022/02/23 05:47:26;;;;;;;8.52;2.20;;;;;;;10.59;50.58;102168.25;5055766;28;20136;-77
2022/02/23 05:49:53;;;;;;;5.82;2.30;;;;;;;10.54;50.38;102156.72;5044577;28;20080;-77
2022/02/23 05:52:20;;;;;;;6.00;2.42;;;;;;;10.51;50.28;102162.28;5049283;28;20095;-77
2022/02/23 05:54:48;;;;;;;5.18;2.15;;;;;;;10.47;50.26;102164.25;5030098;28;20060;-77
2022/02/23 05:57:15;;;;;;;6.82;2.58;;;;;;;10.43;50.17;102165.34;5052118;28;20076;-78
2022/02/23 05:59:46;;;;;;;5.68;2.40;;;;;;;10.38;50.01;102161.94;5051004;28;20140;-77
2022/02/23 06:02:12;;;;;;;7.03;2.60;;;;;;;10.33;50.56;102169.41;5050767;28;20045;-78
2022/02/23 06:04:39;;;;;;;5.13;2.22;;;;;;;10.30;50.35;102169.53;5043304;28;20088;-78
2022/02/23 06:07:06;;;;;;;6.57;2.55;;;;;;;10.27;50.23;102167.00;5015203;28;20056;-77
2022/02/23 06:09:33;;;;;;;6.15;2.65;;;;;;;10.24;50.25;102167.13;5058524;28;20109;-77
2022/02/23 06:12:00;;;;;;;6.57;2.45;;;;;;;10.21;50.25;102162.69;5071704;28;20053;-77
2022/02/23 06:14:31;;;;;;;5.30;2.22;;;;;;;10.20;50.29;102168.22;5046549;28;20094;-77
2022/02/23 06:16:58;;;;;;;7.25;2.30;;;;;;;10.17;50.35;102179.16;5043509;28;20132;-77
2022/02/23 06:19:25;;;;;;;6.65;2.33;;;;;;;10.15;50.33;102172.91;5032258;28;20541;-77
2022/02/23 06:21:52;;;;;;;6.65;2.47;;;;;;;10.12;50.02;102183.94;5050169;28;20144;-77
2022/02/23 06:24:19;;;;;;;6.45;2.25;;;;;;;10.09;50.15;102178.63;5043918;28;20049;-77
2022/02/23 06:26:46;;;;;;;7.18;2.55;;;;;;;10.06;50.20;102176.91;5048156;28;20475;-77
2022/02/23 06:29:13;;;;;;;6.95;2.60;;;;;;;10.04;50.18;102178.84;5048179;28;20095;-77
2022/02/23 06:31:40;;;;;;;8.63;2.67;;;;;;;10.02;50.50;102182.56;5051228;28;20056;-77
2022/02/23 06:34:06;;;;;;;5.28;2.60;;;;;;;9.99;50.36;102183.56;5058777;28;20390;-77
2022/02/23 06:36:33;;;;;;;6.45;2.47;;;;;;;9.97;50.37;102185.44;5048557;28;20449;-77
2022/02/23 06:39:00;;;;;;;6.63;2.70;;;;;;;9.96;50.23;102191.84;5027134;28;20141;-77
2022/02/23 06:41:26;;;;;;;6.90;2.63;;;;;;;9.92;50.31;102193.78;5030316;28;20045;-77
2022/02/23 06:43:54;;;;;;;7.93;2.90;;;;;;;9.92;50.41;102195.63;5035024;28;20512;-78
2022/02/23 06:46:21;;;;;;;4.80;2.40;;;;;;;9.89;50.44;102195.75;5042804;28;20053;-77
2022/02/23 06:48:49;;;;;;;7.55;2.50;;;;;;;9.89;50.41;102198.47;5043686;28;20664;-78
2022/02/23 06:51:19;;;;;;;4.70;2.30;;;;;;;9.87;50.41;102203.97;5048494;28;20408;-77
2022/02/23 06:53:49;;;;;;;5.60;2.40;;;;;;;9.88;50.53;102210.28;5026659;28;20058;-77
2022/02/23 06:56:17;;;;;;;6.18;2.50;;;;;;;9.86;50.42;102206.75;5031486;28;20083;-78
2022/02/23 06:58:46;;;;;;;7.75;2.75;;;;;;;9.86;50.40;102212.16;5048342;28;20087;-77
2022/02/23 07:01:19;;;;;;;6.25;2.63;;;;;;;9.86;50.29;102209.47;5051541;28;20095;-78
2022/02/23 07:03:47;;;;;;;8.23;2.75;;;;;;;9.81;50.29;102206.91;5045986;28;20056;-78
2022/02/23 07:06:14;;;;;;;7.00;2.92;;;;;;;9.80;50.50;102217.88;5040596;28;20084;-77
2022/02/23 07:08:46;;;;;;;8.05;2.90;;;;;;;9.81;50.50;102215.06;5042274;28;20362;-78
2022/02/23 07:11:13;;;;;;;8.55;2.90;;;;;;;9.78;50.57;102211.63;5041003;28;20077;-78
2022/02/23 07:13:39;;;;;;;8.68;3.15;;;;;;;9.77;50.60;102209.84;5027329;28;20061;-77
2022/02/23 07:16:06;;;;;;;7.72;3.10;;;;;;;9.78;50.70;102217.91;5047489;28;20381;-77
2022/02/23 07:18:33;;;;;;;6.53;2.47;;;;;;;9.80;50.92;102217.88;5040279;28;20067;-77
2022/02/23 07:21:00;;;;;;;7.80;2.88;;;;;;;9.81;51.00;102228.63;5051349;28;20488;-77
2022/02/23 07:23:27;;;;;;;6.35;3.10;;;;;;;9.82;51.05;102227.69;5043126;28;20045;-78
2022/02/23 07:25:56;;;;;;;8.40;2.90;;;;;;;9.85;51.40;102230.28;5039829;28;20404;-80
2022/02/23 07:28:24;;;;;;;8.75;3.63;;;;;;;9.88;51.49;102234.69;5044462;28;20049;-81
2022/02/23 07:31:10;;;;;;;7.22;3.25;;;;;;;9.95;51.62;102230.78;5042325;28;20045;-80
2022/02/23 07:33:38;;;;;;;7.25;3.30;;;;;;;9.99;51.47;102240.53;5014565;28;20415;-80
2022/02/23 07:36:06;;;;;;;6.18;3.35;;;;;;;10.05;51.54;102233.94;5046766;28;20095;-80
2022/02/23 07:38:34;;;;;;;6.05;3.13;;;;;;;10.09;51.63;102247.34;5049073;28;20107;-80
2022/02/23 07:41:02;;;;;;;8.85;2.90;;;;;;;10.14;51.46;102250.72;5037920;28;20053;-80
2022/02/23 07:43:50;;;;;;;8.30;3.28;;;;;;;10.19;51.59;102251.47;5040057;28;20063;-82
2022/02/23 07:46:17;;;;;;;6.50;3.22;;;;;;;10.25;51.48;102258.47;5031903;28;20056;-81
2022/02/23 07:48:47;;;;;;;7.60;3.10;;;;;;;10.29;51.34;102247.38;5024459;28;20057;-81
2022/02/23 07:51:17;;;;;;;9.23;3.80;;;;;;;10.35;51.44;102256.22;5048100;28;20056;-82
2022/02/23 07:53:44;;;;;;;8.85;2.90;;;;;;;10.39;51.45;102257.84;5043091;28;20488;-80
2022/02/23 07:56:11;;;;;;;8.07;2.92;;;;;;;10.44;51.43;102263.97;5040257;28;20057;-81
2022/02/23 07:58:38;;;;;;;7.55;3.33;;;;;;;10.47;51.36;102266.53;5046878;28;20573;-81
2022/02/23 08:01:04;;;;;;;7.18;3.25;;;;;;;10.50;51.37;102267.28;5033140;28;20063;-82
2022/02/23 08:03:32;;;;;;;7.57;3.30;;;;;;;10.54;51.47;102276.22;5047229;28;20049;-80
2022/02/23 08:05:59;;;;;;;8.75;3.10;;;;;;;10.56;51.16;102269.72;5049617;28;20511;-82
2022/02/23 08:08:26;;;;;;;8.35;3.40;;;;;;;10.59;51.55;102266.00;5045343;28;20043;-82
2022/02/23 08:10:55;;;;;;;6.85;3.20;;;;;;;10.64;51.27;102267.56;5024568;28;20057;-83
2022/02/23 08:13:22;;;;;;;8.35;3.38;;;;;;;10.65;51.73;102269.31;5005712;28;20069;-85
2022/02/23 08:21:22;;;;;;;6.50;3.17;;;;;;;10.79;51.81;102265.97;5045287;28;20164;-83
2022/02/23 08:23:49;;;;;;;5.82;3.00;;;;;;;10.84;51.87;102261.25;5062665;28;20048;-85
2022/02/23 08:26:16;;;;;;;6.53;2.92;;;;;;;10.89;51.78;102259.19;5060040;28;20468;-88
2022/02/23 08:28:43;;;;;;;9.20;3.40;;;;;;;10.93;51.63;102257.22;5029092;28;20053;-84
2022/02/23 08:31:09;;;;;;;5.93;2.63;;;;;;;10.97;51.62;102261.53;5044372;28;20041;-89
2022/02/23 08:33:38;;;;;;;7.78;2.83;;;;;;;11.01;51.55;102260.47;5058897;28;20074;-90
2022/02/23 08:36:05;;;;;;;5.55;2.70;;;;;;;11.05;51.62;102267.50;5069397;28;20074;-87
2022/02/23 08:38:32;;;;;;;7.63;2.80;;;;;;;11.11;51.27;102271.81;5058307;28;20044;-85
2022/02/23 08:40:59;;;;;;;6.90;3.00;;;;;;;11.13;51.32;102270.75;5043470;28;20456;-90
2022/02/23 08:43:25;;;;;;;6.40;2.72;;;;;;;11.17;51.07;102276.94;5029874;28;20049;-86
2022/02/23 08:45:54;;;;;;;7.68;2.70;;;;;;;11.20;51.19;102277.66;5037134;28;20156;-79
2022/02/23 08:48:26;;;;;;;7.55;3.08;;;;;;;11.25;51.19;102281.06;5042211;28;20405;-81
2022/02/23 08:51:15;;;;;;;7.43;2.53;;;;;;;11.26;51.19;102274.69;5034922;28;20130;-81
2022/02/23 08:53:44;;;;;;;6.65;2.97;;;;;;;11.27;51.15;102281.88;5041503;28;20499;-82
2022/02/23 08:56:12;;;;;;;7.47;3.05;;;;;;;11.31;51.36;102285.31;5029563;28;20057;-80
2022/02/23 08:58:38;;;;;;;4.80;2.60;;;;;;;11.34;51.16;102282.47;5030857;28;20053;-83
2022/02/23 09:01:05;;;;;;;5.50;2.50;;;;;;;11.36;51.32;102286.00;5050468;28;20120;-84
2022/02/23 09:03:32;;;;;;;6.75;3.13;;;;;;;11.39;51.14;102283.13;5054148;28;20063;-84
2022/02/23 09:05:59;;;;;;;7.45;2.70;;;;;;;11.43;51.25;102287.47;5066189;28;20456;-84
2022/02/23 09:08:33;;;;;;;6.03;3.15;;;;;;;11.49;51.13;102289.91;5043879;28;20094;-83
2022/02/23 09:11:00;;;;;;;6.97;3.13;;;;;;;11.50;51.43;102293.50;5052881;28;20044;-82
2022/02/23 09:13:27;;;;;;;6.28;2.80;;;;;;;11.55;51.39;102295.03;5041945;28;20061;-81
2022/02/23 09:15:54;;;;;;;7.88;2.92;;;;;;;11.60;51.81;102295.72;5035845;28;20461;-81
2022/02/23 09:18:21;;;;;;;7.43;2.90;;;;;;;11.66;51.53;102287.25;5040070;28;20045;-80
2022/02/23 09:20:47;;;;;;;7.97;2.85;;;;;;;11.75;51.33;102288.69;5053916;28;20044;-83
2022/02/23 09:23:15;;;;;;;8.65;2.88;;;;;;;11.81;51.63;102291.97;5043232;28;20049;-78
2022/02/23 09:25:42;;;;;;;5.75;2.42;;;;;;;11.88;51.51;102297.97;5041639;28;20507;-76
2022/02/23 09:28:08;;;;;;;5.63;2.67;;;;;;;11.94;51.52;102297.66;5020632;28;20641;-77
2022/02/23 09:30:36;;;;;;;4.80;2.20;;;;;;;12.02;51.71;102298.22;5036155;28;20439;-77
2022/02/23 09:33:05;;;;;;;9.30;2.83;;;;;;;12.10;51.84;102295.09;5046947;28;20049;-77
2022/02/23 09:35:33;;;;;;;4.85;2.40;;;;;;;12.18;51.80;102290.16;5033572;28;20046;-77
2022/02/23 09:38:01;;;;;;;7.40;2.55;;;;;;;12.27;51.61;102292.38;5022931;28;20041;-77
2022/02/23 09:40:31;;;;;;;7.80;2.60;;;;;;;12.37;51.93;102288.22;5049881;28;20053;-77
2022/02/23 09:42:59;;;;;;;6.60;2.40;;;;;;;12.46;51.54;102284.16;5033156;28;20068;-77
2022/02/23 09:45:28;;;;;;;6.18;2.70;;;;;;;12.57;51.64;102277.19;5033705;28;20128;-77
2022/02/23 09:47:55;;;;;;;5.55;2.95;;;;;;;12.65;51.52;102278.63;5025944;28;20088;-78
2022/02/23 09:50:22;;;;;;;5.45;2.25;;;;;;;12.76;51.52;102281.66;5051936;28;20134;-77
2022/02/23 09:52:51;;;;;;;6.95;2.42;;;;;;;12.89;51.16;102280.03;5030397;28;20060;-77
2022/02/23 09:55:19;;;;;;;7.30;2.38;;;;;;;12.98;51.41;102285.00;5044255;28;20098;-78
2022/02/23 09:57:45;;;;;;;8.60;2.70;;;;;;;13.09;51.35;102284.41;5029474;28;20512;-76
2022/02/23 10:00:13;;;;;;;8.43;2.53;;;;;;;13.17;50.99;102276.72;5047087;28;20061;-76
2022/02/23 10:02:40;;;;;;;6.93;2.40;;;;;;;13.27;50.95;102278.84;5048761;28;20057;-76
2022/02/23 10:05:07;;;;;;;6.40;2.38;;;;;;;13.38;50.64;102280.09;5046823;28;20071;-77
2022/02/23 10:07:40;;;;;;;6.75;2.65;;;;;;;13.47;50.60;102268.69;5048238;28;20103;-77
2022/02/23 10:10:08;;;;;;;;;;;;;;;13.30;50.93;102272.34;5034948;28;20450;-77
2022/02/23 10:12:36;;;;;;;9.23;2.25;;;;;;;13.61;50.68;102279.69;5024971;28;19921;-77
2022/02/23 10:15:12;;;;;;;8.65;2.80;;;;;;;13.77;49.90;102275.09;5035696;28;20726;-77
2022/02/23 10:17:48;;;;;;;7.60;2.20;;;;;;;13.86;50.32;102280.03;5042892;28;20060;-77
2022/02/23 10:20:25;;;;;;;5.60;2.70;;;;;;;13.97;49.84;102284.88;5019590;28;20057;-77
2022/02/23 10:22:58;;;;;;;8.80;2.58;;;;;;;14.07;49.32;102275.19;5046154;28;20052;-77
2022/02/23 10:25:28;;;;;;;6.13;2.80;;;;;;;14.13;49.64;102273.94;5039560;28;20085;-77
2022/02/23 10:28:17;;;;;;;6.55;2.53;;;;;;;14.24;48.73;102269.59;5046495;28;20100;-77
2022/02/23 10:30:49;;;;;;;6.50;2.20;;;;;;;14.31;49.55;102276.47;5046541;28;20139;-77
2022/02/23 10:33:18;;;;;;;6.90;2.55;;;;;;;14.39;49.32;102263.25;5046748;28;20488;-77
2022/02/23 10:36:05;;;;;;;7.18;2.30;;;;;;;14.50;48.76;102269.91;5036417;28;20474;-77
2022/02/23 10:38:37;;;;;;;7.05;2.20;;;;;;;14.56;49.21;102272.28;5053684;28;20045;-77
2022/02/23 10:41:06;;;;;;;6.97;2.47;;;;;;;14.63;48.98;102274.53;5049780;28;20057;-77
2022/02/23 10:43:42;;;;;;;6.07;1.88;;;;;;;14.73;48.46;102266.66;5051100;28;20105;-77
2022/02/23 10:46:15;;;;;;;6.18;2.25;;;;;;;14.81;47.75;102269.81;5050953;28;20047;-77
2022/02/23 10:48:44;;;;;;;6.25;2.40;;;;;;;14.85;47.71;102260.41;5057633;28;20136;-77
2022/02/23 10:51:16;;;;;;;6.07;2.00;;;;;;;14.95;46.83;102252.50;5051389;28;20136;-74
2022/02/23 10:53:44;;;;;;;5.45;2.10;;;;;;;14.99;47.34;102262.31;5039640;28;20073;-74
2022/02/23 10:56:31;;;;;;;4.18;1.70;;;;;;;15.06;46.76;102264.56;5044548;28;20059;-74
2022/02/23 10:59:04;;;;;;;6.55;1.85;;;;;;;15.09;46.36;102255.25;5050931;28;20065;-74
2022/02/23 11:01:33;;;;;;;9.40;2.50;;;;;;;15.14;47.33;102255.84;5055778;28;20080;-75
2022/02/23 11:04:00;;;;;;;6.78;1.90;;;;;;;15.17;47.05;102255.63;5059072;28;20160;-77
2022/02/23 11:06:27;;;;;;;5.90;2.45;;;;;;;15.22;47.11;102261.72;5050568;28;20049;-77
2022/02/23 11:08:55;;;;;;;5.82;1.83;;;;;;;15.29;46.49;102249.41;5034247;28;20064;-77
2022/02/23 11:11:25;;;;;;;5.32;1.85;;;;;;;15.33;46.34;102250.94;5050811;28;20131;-77
2022/02/23 11:13:53;;;;;;;4.90;1.50;;;;;;;15.36;46.52;102253.50;5050630;28;20061;-77
2022/02/23 11:16:20;;;;;;;5.95;1.90;;;;;;;15.42;46.43;102236.66;5032588;28;20056;-77
2022/02/23 11:18:47;;;;;;;6.97;2.13;;;;;;;15.48;46.08;102241.72;5048211;28;20064;-77
2022/02/23 11:21:17;;;;;;;4.65;1.52;;;;;;;15.54;45.60;102229.56;5050873;28;20057;-77
2022/02/23 11:23:46;;;;;;;6.47;2.00;;;;;;;15.60;45.56;102240.09;5050067;28;20130;-77
2022/02/23 11:26:20;;;;;;;6.13;2.15;;;;;;;15.66;45.10;102236.06;5050369;28;20107;-77
2022/02/23 11:28:47;;;;;;;4.20;1.50;;;;;;;15.67;45.37;102240.56;5044474;28;20107;-77
2022/02/23 11:31:14;;;;;;;7.25;2.22;;;;;;;15.71;45.49;102228.44;5050812;28;20127;-77
2022/02/23 11:33:47;;;;;;;4.72;1.40;;;;;;;15.78;43.77;102227.94;5050184;28;20899;-77
2022/02/23 11:36:34;;;;;;;5.88;1.58;;;;;;;15.81;43.22;102230.44;5049884;28;20496;-77